Time;durP1;ratioP1;P1;durP2;ratioP2;P2;SDS_P1;SDS_P2;PMS_P1;PMS_P2;Temp;Humidity;BMP_temperature;BMP_pressure;BME280_temperature;BME280_humidity;BME280_pressure;Samples;Min_cycle;Max_cycle;Signal;HPM_P1;HPM_P2
2022/02/16 00:02:14;;;;;;;1.75;0.82;;;8.90;94.10;;;;;;5041314;28;20431;-50
2022/02/16 00:04:40;;;;;;;2.05;1.13;;;8.90;94.10;;;;;;5028339;28;20112;-50
2022/02/16 00:07:06;;;;;;;1.10;0.95;;;8.90;94.30;;;;;;5043874;28;20124;-50
2022/02/16 00:09:32;;;;;;;1.75;1.25;;;8.90;94.30;;;;;;5038761;28;20261;-50
2022/02/16 00:11:58;;;;;;;2.38;1.08;;;8.90;94.10;;;;;;5042072;28;20390;-50
2022/02/16 00:14:23;;;;;;;1.85;1.25;;;8.90;94.10;;;;;;5037340;28;20034;-50
2022/02/16 00:16:49;;;;;;;0.60;0.60;;;8.90;94.20;;;;;;5045005;28;20028;-51
2022/02/16 00:19:15;;;;;;;0.55;0.55;;;8.90;94.10;;;;;;5040145;28;20029;-50
2022/02/16 00:21:41;;;;;;;5.07;0.95;;;8.80;94.10;;;;;;5042411;28;20512;-50
2022/02/16 00:24:06;;;;;;;0.82;0.82;;;8.80;94.10;;;;;;5043149;28;20111;-50
2022/02/16 00:26:32;;;;;;;1.98;1.48;;;8.80;94.30;;;;;;5032105;28;20025;-50
2022/02/16 00:28:58;;;;;;;1.02;0.90;;;8.80;94.30;;;;;;5039096;28;20419;-50
2022/02/16 00:31:23;;;;;;;0.60;0.60;;;8.80;94.30;;;;;;5034926;28;20112;-50
2022/02/16 00:33:49;;;;;;;1.05;0.70;;;8.80;94.20;;;;;;5043991;28;20028;-51
2022/02/16 00:36:15;;;;;;;0.57;0.57;;;8.80;94.20;;;;;;5035518;28;20057;-50
2022/02/16 00:38:40;;;;;;;1.17;1.08;;;8.80;94.10;;;;;;5044518;28;20446;-50
2022/02/16 00:41:06;;;;;;;0.70;0.60;;;8.80;94.30;;;;;;5039558;28;20056;-50
2022/02/16 00:43:32;;;;;;;11.45;1.08;;;8.80;94.10;;;;;;5041736;28;20455;-50
2022/02/16 00:45:58;;;;;;;0.60;0.60;;;8.80;94.20;;;;;;5037081;28;20055;-50
2022/02/16 00:48:23;;;;;;;1.10;1.00;;;8.80;94.10;;;;;;5039471;28;20044;-50
2022/02/16 00:50:49;;;;;;;1.00;0.90;;;8.80;94.30;;;;;;5034862;28;20026;-50
2022/02/16 00:53:15;;;;;;;1.92;0.80;;;8.80;94.20;;;;;;5038356;28;20056;-51
2022/02/16 00:55:40;;;;;;;1.17;0.85;;;8.80;94.30;;;;;;5032889;28;20036;-50
2022/02/16 00:58:06;;;;;;;1.15;0.95;;;8.80;94.20;;;;;;5041113;28;20104;-50
2022/02/16 01:00:33;;;;;;;11.10;2.40;;;8.90;94.20;;;;;;5031134;28;20101;-51
2022/02/16 01:03:00;;;;;;;4.53;1.73;;;8.90;94.10;;;;;;5035061;28;20485;-50
2022/02/16 01:05:25;;;;;;;2.05;1.30;;;8.80;94.00;;;;;;5032270;28;20057;-50
2022/02/16 01:07:51;;;;;;;1.00;0.90;;;8.90;94.20;;;;;;5040964;28;20059;-51
2022/02/16 01:10:17;;;;;;;1.33;0.85;;;8.80;94.10;;;;;;5041934;28;20116;-50
2022/02/16 01:12:43;;;;;;;1.98;0.95;;;8.80;94.20;;;;;;5032286;28;20108;-50
2022/02/16 01:15:09;;;;;;;4.03;0.63;;;8.80;94.20;;;;;;5034473;28;20534;-50
2022/02/16 01:17:34;;;;;;;0.98;0.95;;;8.80;94.50;;;;;;5042802;28;20032;-51
2022/02/16 01:20:00;;;;;;;4.68;0.98;;;8.80;94.60;;;;;;5043585;28;20120;-50
2022/02/16 01:22:26;;;;;;;1.13;0.98;;;8.80;94.40;;;;;;5029734;28;20054;-50
2022/02/16 01:24:51;;;;;;;0.50;0.50;;;8.80;94.30;;;;;;5039262;28;20026;-50
2022/02/16 01:27:17;;;;;;;0.50;0.50;;;8.80;94.20;;;;;;5040008;28;20034;-50
2022/02/16 01:29:43;;;;;;;0.63;0.63;;;8.80;94.20;;;;;;5042467;28;20473;-51
2022/02/16 01:32:08;;;;;;;0.80;0.65;;;8.70;94.40;;;;;;5038806;28;20460;-50
2022/02/16 01:34:34;;;;;;;0.70;0.65;;;8.80;94.20;;;;;;5040002;28;20037;-50
2022/02/16 01:37:00;;;;;;;0.50;0.50;;;8.70;94.10;;;;;;5037383;28;20099;-51
2022/02/16 01:39:26;;;;;;;0.68;0.68;;;8.80;94.20;;;;;;5041406;28;20451;-51
2022/02/16 01:41:53;;;;;;;0.57;0.57;;;8.80;94.20;;;;;;5039222;28;20029;-50
2022/02/16 01:44:21;;;;;;;1.60;0.85;;;8.80;94.20;;;;;;5037978;28;20485;-50
2022/02/16 01:46:52;;;;;;;1.75;0.95;;;8.80;94.00;;;;;;5027320;28;20044;-50
2022/02/16 01:49:18;;;;;;;0.50;0.50;;;8.80;94.10;;;;;;5042351;28;20048;-51
2022/02/16 01:51:44;;;;;;;1.70;1.20;;;8.80;94.00;;;;;;5038308;28;20037;-50
2022/02/16 01:54:11;;;;;;;4.75;1.00;;;8.80;94.20;;;;;;5038334;28;20039;-50
2022/02/16 01:56:37;;;;;;;1.63;0.70;;;8.80;94.10;;;;;;5039398;28;20032;-50
2022/02/16 01:59:03;;;;;;;5.40;0.80;;;8.80;94.10;;;;;;5038219;28;20029;-50
2022/02/16 02:01:29;;;;;;;0.70;0.65;;;8.80;94.10;;;;;;5033963;28;20033;-50
2022/02/16 02:03:55;;;;;;;0.32;0.32;;;8.80;94.00;;;;;;5036516;28;20026;-50
2022/02/16 02:06:20;;;;;;;0.45;0.45;;;8.80;94.00;;;;;;5038284;28;20040;-50
2022/02/16 02:08:46;;;;;;;4.63;0.85;;;8.80;93.90;;;;;;5036063;28;20041;-50
2022/02/16 02:11:11;;;;;;;2.03;0.95;;;8.80;94.00;;;;;;5036525;28;20021;-50
2022/02/16 02:13:37;;;;;;;1.50;0.70;;;8.80;94.10;;;;;;5040908;28;20025;-50
2022/02/16 02:16:03;;;;;;;6.20;1.00;;;8.90;94.10;;;;;;5037731;28;20025;-50
2022/02/16 02:18:28;;;;;;;0.50;0.50;;;8.90;94.10;;;;;;5040300;28;20029;-50
2022/02/16 02:20:54;;;;;;;0.20;0.20;;;8.80;94.00;;;;;;5036303;28;20126;-50
2022/02/16 02:23:20;;;;;;;1.92;1.10;;;8.80;94.00;;;;;;5041923;28;20120;-50
2022/02/16 02:25:54;;;;;;;10.35;0.60;;;8.80;94.20;;;;;;5037872;28;20084;-50
2022/02/16 02:28:25;;;;;;;1.80;0.82;;;8.90;93.90;;;;;;5042774;28;20037;-50
2022/02/16 02:30:50;;;;;;;0.60;0.60;;;8.80;93.90;;;;;;5027694;28;20088;-50
2022/02/16 02:33:16;;;;;;;0.55;0.55;;;8.90;94.00;;;;;;5036619;28;20029;-50
2022/02/16 02:35:43;;;;;;;0.50;0.50;;;8.80;93.90;;;;;;5040537;28;20033;-51
2022/02/16 02:38:08;;;;;;;1.33;0.70;;;8.80;94.10;;;;;;5037201;28;20481;-50
2022/02/16 02:40:35;;;;;;;0.60;0.55;;;8.80;94.00;;;;;;5040373;28;20038;-50
2022/02/16 02:43:01;;;;;;;1.45;0.82;;;8.80;94.00;;;;;;5034687;28;20033;-50
2022/02/16 02:45:26;;;;;;;3.20;0.60;;;8.80;94.10;;;;;;5034978;28;20485;-50
2022/02/16 02:47:52;;;;;;;0.47;0.47;;;8.80;93.90;;;;;;5031319;28;20053;-51
2022/02/16 02:50:18;;;;;;;0.98;0.52;;;8.90;93.90;;;;;;5041457;28;20026;-50
2022/02/16 02:52:44;;;;;;;0.93;0.28;;;8.80;94.00;;;;;;5036646;28;20021;-50
2022/02/16 02:55:11;;;;;;;0.68;0.68;;;8.80;93.90;;;;;;5040367;28;20022;-50
2022/02/16 02:57:38;;;;;;;1.08;0.98;;;8.80;93.90;;;;;;5038583;28;20022;-50
2022/02/16 03:00:06;;;;;;;0.93;0.93;;;8.80;94.10;;;;;;5039084;28;20351;-50
2022/02/16 03:02:32;;;;;;;3.65;0.90;;;8.90;94.30;;;;;;5033101;28;20035;-50
2022/02/16 03:04:57;;;;;;;0.20;0.20;;;8.80;93.90;;;;;;5031732;28;20768;-50
2022/02/16 03:07:23;;;;;;;0.52;0.52;;;8.80;93.90;;;;;;5038483;28;20037;-50
2022/02/16 03:09:49;;;;;;;1.17;0.70;;;8.80;93.90;;;;;;5035725;28;20041;-51
2022/02/16 03:12:14;;;;;;;0.45;0.45;;;8.80;93.90;;;;;;5036599;28;20097;-51
2022/02/16 03:14:40;;;;;;;2.80;0.77;;;8.80;93.80;;;;;;5037755;28;20105;-50
2022/02/16 03:17:05;;;;;;;0.35;0.32;;;8.80;93.80;;;;;;5031465;28;20489;-50
2022/02/16 03:19:31;;;;;;;3.15;0.90;;;8.80;93.80;;;;;;5037545;28;20053;-50
2022/02/16 03:21:57;;;;;;;0.28;0.28;;;8.80;93.80;;;;;;5040118;28;20321;-50
2022/02/16 03:24:22;;;;;;;1.27;0.80;;;8.80;93.80;;;;;;5040715;28;20518;-50
2022/02/16 03:26:48;;;;;;;4.90;1.45;;;8.80;93.80;;;;;;5036057;28;20036;-50
2022/02/16 03:29:14;;;;;;;0.70;0.70;;;8.80;93.80;;;;;;5040149;28;20037;-50
2022/02/16 03:31:39;;;;;;;1.05;0.95;;;8.80;93.80;;;;;;5024922;28;20235;-50
2022/02/16 03:34:07;;;;;;;0.45;0.45;;;8.80;93.80;;;;;;5037026;28;20034;-50
2022/02/16 03:36:32;;;;;;;0.68;0.50;;;8.90;93.90;;;;;;5036701;28;20033;-50
2022/02/16 03:38:58;;;;;;;0.68;0.50;;;8.80;93.70;;;;;;5036120;28;20026;-50
2022/02/16 03:41:23;;;;;;;1.17;0.55;;;8.80;93.70;;;;;;5036219;28;20038;-50
2022/02/16 03:43:49;;;;;;;0.40;0.40;;;8.80;93.70;;;;;;5031371;28;20037;-50
2022/02/16 03:46:15;;;;;;;0.65;0.50;;;8.80;94.10;;;;;;5032372;28;20026;-50
2022/02/16 03:48:40;;;;;;;0.40;0.40;;;8.80;93.80;;;;;;5040745;28;20104;-50
2022/02/16 03:51:06;;;;;;;1.95;0.50;;;8.80;93.70;;;;;;5035983;28;20262;-50
2022/02/16 03:53:32;;;;;;;0.52;0.47;;;8.80;93.70;;;;;;5036802;28;20033;-50
2022/02/16 03:55:57;;;;;;;0.22;0.22;;;8.80;93.80;;;;;;5039315;28;20032;-50
2022/02/16 03:58:23;;;;;;;1.33;0.75;;;8.80;93.70;;;;;;5023708;28;20321;-50
2022/02/16 04:00:48;;;;;;;0.40;0.40;;;8.80;93.80;;;;;;5039247;28;20026;-50
2022/02/16 04:03:14;;;;;;;0.50;0.50;;;8.80;93.70;;;;;;5031838;28;20038;-50
2022/02/16 04:05:41;;;;;;;0.38;0.38;;;8.90;93.70;;;;;;5035592;28;20216;-50
2022/02/16 04:08:08;;;;;;;2.15;0.55;;;8.80;93.60;;;;;;5032228;28;20045;-50
2022/02/16 04:10:34;;;;;;;1.63;0.70;;;8.90;93.70;;;;;;5038729;28;20516;-50
2022/02/16 04:13:00;;;;;;;0.40;0.40;;;8.80;94.00;;;;;;5033644;28;20037;-50
2022/02/16 04:15:25;;;;;;;0.60;0.57;;;8.90;93.60;;;;;;5034124;28;20033;-50
2022/02/16 04:17:52;;;;;;;0.50;0.50;;;8.90;93.70;;;;;;5039400;28;20025;-50
2022/02/16 04:20:18;;;;;;;2.15;0.50;;;8.90;93.70;;;;;;5032138;28;20033;-50
2022/02/16 04:22:45;;;;;;;0.55;0.55;;;8.80;93.90;;;;;;5029907;28;20022;-50
2022/02/16 04:25:12;;;;;;;1.10;0.57;;;8.80;93.70;;;;;;5032186;28;20068;-50
2022/02/16 04:27:37;;;;;;;0.60;0.60;;;8.80;93.70;;;;;;5037148;28;20324;-50
2022/02/16 04:30:05;;;;;;;0.55;0.52;;;8.80;94.00;;;;;;5038447;28;20088;-50
2022/02/16 04:32:31;;;;;;;0.52;0.52;;;8.80;93.80;;;;;;5032282;28;20060;-50
2022/02/16 04:34:56;;;;;;;0.55;0.50;;;8.80;93.70;;;;;;5033127;28;20057;-51
2022/02/16 04:37:22;;;;;;;0.98;0.60;;;8.90;93.90;;;;;;5035376;28;20025;-50
2022/02/16 04:39:48;;;;;;;0.30;0.30;;;8.80;93.60;;;;;;5038871;28;20483;-51
2022/02/16 04:42:13;;;;;;;1.48;1.15;;;8.80;93.70;;;;;;5040439;28;20078;-50
2022/02/16 04:44:39;;;;;;;0.60;0.60;;;8.80;93.70;;;;;;5033425;28;20029;-51
2022/02/16 04:47:05;;;;;;;3.30;0.63;;;8.80;93.60;;;;;;5030509;28;20025;-50
2022/02/16 04:49:30;;;;;;;0.63;0.50;;;8.90;93.70;;;;;;5044296;28;20056;-50
2022/02/16 04:51:56;;;;;;;0.55;0.55;;;8.90;93.70;;;;;;5043146;28;20024;-50
2022/02/16 04:54:21;;;;;;;0.65;0.47;;;8.80;93.80;;;;;;5041768;28;20033;-50
2022/02/16 04:56:47;;;;;;;0.82;0.60;;;8.80;93.80;;;;;;5032934;28;20041;-51
2022/02/16 04:59:12;;;;;;;0.85;0.85;;;8.80;93.60;;;;;;5027247;28;20349;-50
2022/02/16 05:01:38;;;;;;;0.98;0.50;;;8.80;93.70;;;;;;5039184;28;20033;-50
2022/02/16 05:04:04;;;;;;;0.80;0.80;;;8.80;93.50;;;;;;5040172;28;20117;-50
2022/02/16 05:06:30;;;;;;;0.63;0.60;;;8.80;93.60;;;;;;5037428;28;20033;-51
2022/02/16 05:08:57;;;;;;;0.60;0.60;;;8.80;93.70;;;;;;5037062;28;20037;-50
2022/02/16 05:11:23;;;;;;;1.27;0.95;;;8.80;93.60;;;;;;5040708;28;20078;-50
2022/02/16 05:13:49;;;;;;;0.40;0.40;;;8.80;93.60;;;;;;5042209;28;20093;-50
2022/02/16 05:16:15;;;;;;;0.52;0.52;;;8.80;93.60;;;;;;5039624;28;20348;-51
2022/02/16 05:18:40;;;;;;;0.77;0.60;;;8.80;93.70;;;;;;5035185;28;20040;-50
2022/02/16 05:21:06;;;;;;;0.43;0.43;;;8.80;93.90;;;;;;5034134;28;20426;-50
2022/02/16 05:23:32;;;;;;;2.67;0.60;;;8.80;93.70;;;;;;5042469;28;20029;-50
2022/02/16 05:25:57;;;;;;;0.82;0.47;;;8.80;93.60;;;;;;5038961;28;20375;-50
2022/02/16 05:28:23;;;;;;;0.30;0.30;;;8.80;93.70;;;;;;5039582;28;20041;-50
2022/02/16 05:30:49;;;;;;;0.50;0.50;;;8.80;93.60;;;;;;5040006;28;20028;-50
2022/02/16 05:33:14;;;;;;;0.57;0.57;;;8.80;93.60;;;;;;5036274;28;20029;-50
2022/02/16 05:35:40;;;;;;;0.52;0.52;;;8.80;93.70;;;;;;5042955;28;20029;-50
2022/02/16 05:38:06;;;;;;;0.60;0.60;;;8.80;93.60;;;;;;5038640;28;20525;-50
2022/02/16 05:40:31;;;;;;;0.75;0.50;;;8.80;93.70;;;;;;5038852;28;20072;-50
2022/02/16 05:42:57;;;;;;;1.48;0.57;;;8.80;93.70;;;;;;5042011;28;20053;-50
2022/02/16 05:45:23;;;;;;;0.30;0.30;;;8.80;93.70;;;;;;5039308;28;20100;-50
2022/02/16 05:47:49;;;;;;;2.03;0.80;;;8.80;93.60;;;;;;5026007;28;20032;-50
2022/02/16 05:50:14;;;;;;;0.30;0.30;;;8.80;93.70;;;;;;5037456;28;20041;-50
2022/02/16 05:52:40;;;;;;;2.83;0.45;;;8.80;93.60;;;;;;5034609;28;20025;-50
2022/02/16 05:55:06;;;;;;;0.82;0.57;;;8.80;93.50;;;;;;5039423;28;20040;-50
2022/02/16 05:57:32;;;;;;;0.73;0.73;;;8.80;93.50;;;;;;5043403;28;20116;-50
2022/02/16 05:59:59;;;;;;;0.82;0.63;;;8.80;93.30;;;;;;5036590;28;20048;-50
2022/02/16 06:02:24;;;;;;;0.40;0.40;;;8.80;93.60;;;;;;5028812;28;20036;-50
2022/02/16 06:04:51;;;;;;;0.68;0.60;;;8.80;93.60;;;;;;5038776;28;20018;-51
2022/02/16 06:07:16;;;;;;;0.30;0.30;;;8.80;93.60;;;;;;5037184;28;20033;-50
2022/02/16 06:09:42;;;;;;;5.20;0.68;;;8.80;93.60;;;;;;5029085;28;20384;-50
2022/02/16 06:12:08;;;;;;;1.27;0.90;;;8.80;93.60;;;;;;5035634;28;20466;-50
2022/02/16 06:14:33;;;;;;;2.95;0.88;;;8.80;93.70;;;;;;5038088;28;20041;-51
2022/02/16 06:16:59;;;;;;;0.50;0.50;;;8.80;93.60;;;;;;5041431;28;20125;-50
2022/02/16 06:19:24;;;;;;;0.52;0.52;;;8.80;93.50;;;;;;5034277;28;20033;-50
2022/02/16 06:21:50;;;;;;;0.63;0.57;;;8.80;93.60;;;;;;5033492;28;20022;-51
2022/02/16 06:24:19;;;;;;;0.47;0.47;;;8.80;93.60;;;;;;5033933;28;20025;-51
2022/02/16 06:26:45;;;;;;;1.35;0.60;;;8.80;93.50;;;;;;5028754;28;20021;-50
2022/02/16 06:29:11;;;;;;;0.40;0.40;;;8.80;93.60;;;;;;5030912;28;20021;-50
2022/02/16 06:31:36;;;;;;;0.80;0.57;;;8.80;93.60;;;;;;5028355;28;20049;-50
2022/02/16 06:34:02;;;;;;;0.55;0.55;;;8.90;93.70;;;;;;5033847;28;20037;-50
2022/02/16 06:36:28;;;;;;;0.30;0.30;;;8.80;93.50;;;;;;5032963;28;20579;-53
2022/02/16 06:38:53;;;;;;;0.57;0.57;;;8.90;93.40;;;;;;5040486;28;20029;-54
2022/02/16 06:41:21;;;;;;;0.75;0.75;;;8.80;93.60;;;;;;5033907;28;20474;-53
2022/02/16 06:43:47;;;;;;;0.25;0.25;;;8.80;93.20;;;;;;5034417;28;20038;-53
2022/02/16 06:46:12;;;;;;;2.25;0.55;;;8.80;93.30;;;;;;5033489;28;20052;-53
2022/02/16 06:48:38;;;;;;;0.47;0.47;;;8.80;93.10;;;;;;5029938;28;20455;-54
2022/02/16 06:51:04;;;;;;;0.20;0.20;;;8.90;93.50;;;;;;5032608;28;20033;-53
2022/02/16 06:53:30;;;;;;;0.57;0.57;;;8.90;93.20;;;;;;5035490;28;20451;-53
2022/02/16 06:55:55;;;;;;;1.08;0.45;;;8.80;93.20;;;;;;5041687;28;20038;-53
2022/02/16 06:58:21;;;;;;;0.43;0.43;;;8.80;93.40;;;;;;5032432;28;20470;-53
2022/02/16 07:00:47;;;;;;;0.63;0.30;;;8.80;93.70;;;;;;5031056;28;20065;-53
2022/02/16 07:03:14;;;;;;;1.05;0.60;;;8.80;93.40;;;;;;5031639;28;20053;-53
2022/02/16 07:05:40;;;;;;;0.98;0.63;;;8.80;93.40;;;;;;5025937;28;20033;-53
2022/02/16 07:08:06;;;;;;;5.55;0.80;;;8.80;93.60;;;;;;5031174;28;20414;-54
2022/02/16 07:10:32;;;;;;;0.50;0.50;;;8.90;93.50;;;;;;5028833;28;20451;-53
2022/02/16 07:12:58;;;;;;;0.35;0.35;;;8.90;93.40;;;;;;5030661;28;20076;-54
2022/02/16 07:15:24;;;;;;;0.90;0.60;;;8.90;93.40;;;;;;5035843;28;20057;-54
2022/02/16 07:17:50;;;;;;;1.05;1.05;;;8.80;93.50;;;;;;5036835;28;20025;-53
2022/02/16 07:20:16;;;;;;;0.43;0.43;;;8.90;93.60;;;;;;5032743;28;20022;-53
2022/02/16 07:22:46;;;;;;;1.20;1.00;;;8.80;93.50;;;;;;5032349;28;20060;-54
2022/02/16 07:25:13;;;;;;;0.40;0.40;;;8.90;93.60;;;;;;5033660;28;20033;-54
2022/02/16 07:27:39;;;;;;;0.73;0.73;;;8.80;93.60;;;;;;5037989;28;20033;-53
2022/02/16 07:30:07;;;;;;;1.63;0.90;;;8.90;93.60;;;;;;5035979;28;20094;-54
2022/02/16 07:32:33;;;;;;;0.30;0.30;;;8.90;93.70;;;;;;5034012;28;20336;-53
2022/02/16 07:34:59;;;;;;;0.40;0.40;;;8.90;93.50;;;;;;5035665;28;20028;-53
2022/02/16 07:37:24;;;;;;;0.30;0.30;;;8.90;93.90;;;;;;5043227;28;20120;-54
2022/02/16 07:39:50;;;;;;;0.30;0.30;;;8.90;93.70;;;;;;5032083;28;20339;-54
2022/02/16 07:42:16;;;;;;;0.20;0.20;;;8.90;93.60;;;;;;5033991;28;20069;-53
2022/02/16 07:44:42;;;;;;;0.35;0.35;;;8.90;93.90;;;;;;5032927;28;20443;-54
2022/02/16 07:47:10;;;;;;;0.20;0.20;;;8.90;93.50;;;;;;5027784;28;20047;-53
2022/02/16 07:49:36;;;;;;;0.28;0.28;;;8.90;93.70;;;;;;5030650;28;20056;-53
2022/02/16 07:52:03;;;;;;;8.65;1.90;;;8.90;93.80;;;;;;5038990;28;20017;-54
2022/02/16 07:54:30;;;;;;;1.00;0.75;;;8.90;93.70;;;;;;5032571;28;20034;-53
2022/02/16 07:56:55;;;;;;;0.47;0.47;;;8.90;93.60;;;;;;5041794;28;20033;-53
2022/02/16 07:59:21;;;;;;;0.20;0.20;;;8.90;93.70;;;;;;5039745;28;20410;-53
2022/02/16 08:01:47;;;;;;;0.45;0.45;;;8.90;93.70;;;;;;5038998;28;20022;-53
2022/02/16 08:04:18;;;;;;;0.77;0.47;;;8.90;93.80;;;;;;5028454;28;20462;-53
2022/02/16 08:06:47;;;;;;;0.38;0.38;;;8.90;94.00;;;;;;5039809;28;20033;-53
2022/02/16 08:09:14;;;;;;;0.77;0.45;;;8.90;93.90;;;;;;5031337;28;20029;-53
2022/02/16 08:11:41;;;;;;;0.60;0.60;;;8.90;93.70;;;;;;5034555;28;20026;-53
2022/02/16 08:14:07;;;;;;;0.52;0.30;;;8.90;93.60;;;;;;5034042;28;20041;-54
2022/02/16 08:16:33;;;;;;;0.45;0.45;;;8.90;94.00;;;;;;5025364;28;20087;-54
2022/02/16 08:18:59;;;;;;;0.52;0.40;;;8.90;93.70;;;;;;5031724;28;20025;-54
2022/02/16 08:21:25;;;;;;;0.30;0.30;;;8.90;93.80;;;;;;5035046;28;20120;-53
2022/02/16 08:23:51;;;;;;;0.40;0.40;;;8.90;93.90;;;;;;5037291;28;20076;-53
2022/02/16 08:26:17;;;;;;;0.55;0.55;;;8.90;93.80;;;;;;5027363;28;20021;-54
2022/02/16 08:28:42;;;;;;;0.43;0.32;;;8.90;94.20;;;;;;5038564;28;20094;-54
2022/02/16 08:31:08;;;;;;;1.00;0.60;;;9.00;94.00;;;;;;5040074;28;20415;-53
2022/02/16 08:33:34;;;;;;;0.50;0.50;;;8.90;93.90;;;;;;5041404;28;20131;-53
2022/02/16 08:35:59;;;;;;;0.30;0.30;;;8.90;93.80;;;;;;5041050;28;20033;-54
2022/02/16 08:38:25;;;;;;;0.50;0.40;;;8.90;93.90;;;;;;5040171;28;20362;-54
2022/02/16 08:40:51;;;;;;;0.63;0.60;;;9.00;94.10;;;;;;5039935;28;20021;-53
2022/02/16 08:43:16;;;;;;;0.55;0.55;;;8.90;94.20;;;;;;5043171;28;20033;-53
2022/02/16 08:45:43;;;;;;;0.30;0.30;;;8.90;94.00;;;;;;5040682;28;20029;-53
2022/02/16 08:48:09;;;;;;;0.40;0.40;;;8.90;94.00;;;;;;5038718;28;20017;-53
2022/02/16 08:50:35;;;;;;;0.38;0.38;;;9.00;94.10;;;;;;5037243;28;20463;-54
2022/02/16 08:53:01;;;;;;;0.70;0.70;;;9.00;94.00;;;;;;5039917;28;20108;-54
2022/02/16 08:55:26;;;;;;;0.40;0.40;;;9.00;94.00;;;;;;5036644;28;20514;-54
2022/02/16 08:57:52;;;;;;;1.15;0.60;;;9.00;94.10;;;;;;5037651;28;20501;-54
2022/02/16 09:00:18;;;;;;;0.30;0.30;;;9.00;94.10;;;;;;5039741;28;20033;-53
2022/02/16 09:02:44;;;;;;;0.40;0.40;;;9.00;94.20;;;;;;5042415;28;20032;-53
2022/02/16 09:05:10;;;;;;;0.50;0.50;;;9.00;94.00;;;;;;5034888;28;20029;-54
2022/02/16 09:07:35;;;;;;;0.45;0.45;;;9.00;94.20;;;;;;5043450;28;20601;-53
2022/02/16 09:10:05;;;;;;;0.45;0.45;;;9.00;94.20;;;;;;5043721;28;20120;-53
2022/02/16 09:12:31;;;;;;;0.40;0.40;;;9.00;94.20;;;;;;5036674;28;20519;-54
2022/02/16 09:14:57;;;;;;;0.55;0.55;;;9.00;94.30;;;;;;5038224;28;20356;-53
2022/02/16 09:17:26;;;;;;;0.40;0.40;;;9.10;94.40;;;;;;5034703;28;20359;-53
2022/02/16 09:19:52;;;;;;;0.52;0.40;;;9.00;94.30;;;;;;5029608;28;20071;-53
2022/02/16 09:22:19;;;;;;;0.70;0.52;;;9.00;94.40;;;;;;5039518;28;20025;-53
2022/02/16 09:24:45;;;;;;;0.25;0.25;;;9.00;94.20;;;;;;5038907;28;20029;-53
2022/02/16 09:27:13;;;;;;;2.95;0.82;;;9.00;94.40;;;;;;5042915;28;20021;-53
2022/02/16 09:29:39;;;;;;;0.40;0.40;;;9.10;94.20;;;;;;5040304;28;20040;-53
2022/02/16 09:32:05;;;;;;;0.30;0.30;;;9.10;94.30;;;;;;5037495;28;20124;-53
2022/02/16 09:34:31;;;;;;;1.45;0.40;;;9.10;94.20;;;;;;5035956;28;20171;-53
2022/02/16 09:36:56;;;;;;;0.70;0.70;;;9.10;94.30;;;;;;5034319;28;20451;-53
2022/02/16 09:39:22;;;;;;;0.47;0.40;;;9.10;94.20;;;;;;5042487;28;20358;-53
2022/02/16 09:41:48;;;;;;;0.52;0.47;;;9.10;94.60;;;;;;5040842;28;20025;-54
2022/02/16 09:44:16;;;;;;;0.55;0.50;;;9.10;94.40;;;;;;5039063;28;20507;-53
2022/02/16 09:46:42;;;;;;;0.30;0.30;;;9.10;94.30;;;;;;5040717;28;20265;-53
2022/02/16 09:49:11;;;;;;;0.63;0.63;;;9.10;94.30;;;;;;5038413;28;20033;-53
2022/02/16 09:51:38;;;;;;;0.90;0.40;;;9.10;94.30;;;;;;5036416;28;20028;-53
2022/02/16 09:54:05;;;;;;;0.77;0.47;;;9.10;94.40;;;;;;5035241;28;20235;-53
2022/02/16 09:56:32;;;;;;;0.70;0.70;;;9.10;94.40;;;;;;5042418;28;20036;-53
2022/02/16 09:58:59;;;;;;;0.20;0.20;;;9.10;94.50;;;;;;5038881;28;20511;-53
2022/02/16 10:01:25;;;;;;;0.40;0.40;;;9.10;94.70;;;;;;5040749;28;20372;-53
2022/02/16 10:04:02;;;;;;;0.57;0.57;;;9.10;94.40;;;;;;5038794;28;20029;-53
2022/02/16 10:06:44;;;;;;;0.30;0.30;;;9.10;94.50;;;;;;5036842;28;20365;-53
2022/02/16 10:09:26;;;;;;;0.50;0.50;;;9.10;94.50;;;;;;5036394;28;20072;-53
2022/02/16 10:11:58;;;;;;;4.18;3.85;;;9.10;94.70;;;;;;5031792;28;20025;-53
2022/02/16 10:14:27;;;;;;;0.65;0.65;;;9.10;94.60;;;;;;5039901;28;20033;-53
2022/02/16 10:16:54;;;;;;;0.32;0.32;;;9.10;94.50;;;;;;5041797;28;20044;-53
2022/02/16 10:19:20;;;;;;;0.20;0.20;;;9.20;94.50;;;;;;5040722;28;20035;-53
2022/02/16 10:22:07;;;;;;;0.30;0.30;;;9.20;94.80;;;;;;5035203;28;20106;-53
2022/02/16 10:24:34;;;;;;;1.10;0.85;;;9.10;94.60;;;;;;5036054;28;20025;-53
2022/02/16 10:27:00;;;;;;;0.30;0.30;;;9.10;94.60;;;;;;5039652;28;20112;-53
2022/02/16 10:29:29;;;;;;;0.28;0.28;;;9.20;94.60;;;;;;5038625;28;20151;-53
2022/02/16 10:31:57;;;;;;;1.45;1.35;;;9.20;94.60;;;;;;5037197;28;20033;-54
2022/02/16 10:34:23;;;;;;;0.30;0.30;;;9.20;94.60;;;;;;5034237;28;20157;-53
2022/02/16 10:36:49;;;;;;;0.40;0.40;;;9.20;94.80;;;;;;5034949;28;20036;-54
2022/02/16 10:39:17;;;;;;;0.40;0.40;;;9.20;94.80;;;;;;5042821;28;20251;-53
2022/02/16 10:41:50;;;;;;;0.40;0.40;;;9.20;94.70;;;;;;5040636;28;20087;-54
2022/02/16 10:44:15;;;;;;;0.50;0.50;;;9.20;94.70;;;;;;5032678;28;20488;-54
2022/02/16 10:46:41;;;;;;;0.32;0.32;;;9.20;94.80;;;;;;5035050;28;20105;-54
2022/02/16 10:49:13;;;;;;;0.40;0.40;;;9.20;94.80;;;;;;5039447;28;20037;-53
2022/02/16 10:51:40;;;;;;;0.50;0.50;;;9.20;94.70;;;;;;5030841;28;20372;-53
2022/02/16 10:54:18;;;;;;;0.40;0.40;;;9.20;94.90;;;;;;5035242;28;20124;-53
2022/02/16 10:56:45;;;;;;;0.30;0.30;;;9.20;94.80;;;;;;5035470;28;20487;-53
2022/02/16 10:59:11;;;;;;;0.38;0.30;;;9.20;94.90;;;;;;5039176;28;20033;-53
2022/02/16 11:01:39;;;;;;;0.30;0.30;;;9.20;94.90;;;;;;5034176;28;20051;-54
2022/02/16 11:04:06;;;;;;;0.28;0.28;;;9.20;95.00;;;;;;5034328;28;20033;-54
2022/02/16 11:06:41;;;;;;;0.38;0.38;;;9.20;95.00;;;;;;5030877;28;20039;-53
2022/02/16 11:09:11;;;;;;;0.30;0.30;;;9.20;95.10;;;;;;5042053;28;20037;-54
2022/02/16 11:11:41;;;;;;;0.63;0.63;;;9.20;95.30;;;;;;5040533;28;20046;-54
2022/02/16 11:14:08;;;;;;;0.60;0.60;;;9.30;95.20;;;;;;5037028;28;20055;-54
2022/02/16 11:16:35;;;;;;;1.15;0.65;;;9.20;94.90;;;;;;5041267;28;20022;-54
2022/02/16 11:19:32;;;;;;;0.30;0.30;;;9.20;95.00;;;;;;5038421;28;20043;-53
2022/02/16 11:22:18;;;;;;;0.30;0.30;;;9.20;95.00;;;;;;5026895;28;20120;-53
2022/02/16 11:24:47;;;;;;;0.38;0.38;;;9.30;95.10;;;;;;5035829;28;20029;-53
2022/02/16 11:27:29;;;;;;;0.32;0.30;;;9.30;95.20;;;;;;5039146;28;20032;-53
2022/02/16 11:29:57;;;;;;;0.45;0.45;;;9.30;95.10;;;;;;5031816;28;20463;-53
2022/02/16 11:32:26;;;;;;;0.63;0.55;;;9.30;95.10;;;;;;5039870;28;20036;-53
2022/02/16 11:35:26;;;;;;;1.02;0.45;;;9.30;95.00;;;;;;5041767;28;20475;-53
2022/02/16 11:38:16;;;;;;;0.40;0.40;;;9.30;95.20;;;;;;5037621;28;20112;-53
2022/02/16 11:40:47;;;;;;;;;;;9.30;95.10;;;;;;5034315;28;20079;-53
2022/02/16 11:43:15;;;;;;;0.57;0.52;;;9.30;95.30;;;;;;5039978;28;19991;-54
2022/02/16 11:45:42;;;;;;;0.50;0.50;;;9.30;95.10;;;;;;5042022;28;20036;-54
2022/02/16 11:48:09;;;;;;;0.20;0.20;;;9.30;95.10;;;;;;5039201;28;20326;-54
2022/02/16 11:50:37;;;;;;;0.28;0.28;;;9.30;95.10;;;;;;5028657;28;20376;-54
2022/02/16 11:53:06;;;;;;;0.20;0.20;;;9.40;95.30;;;;;;5037452;28;20029;-54
2022/02/16 11:55:42;;;;;;;0.52;0.38;;;9.40;95.40;;;;;;5041793;28;20084;-53
2022/02/16 11:58:21;;;;;;;0.30;0.30;;;9.30;95.30;;;;;;5037738;28;20463;-53
2022/02/16 12:00:56;;;;;;;0.82;0.80;;;9.40;95.40;;;;;;5033606;28;20030;-53
2022/02/16 12:03:27;;;;;;;0.30;0.30;;;9.40;95.20;;;;;;5042165;28;20032;-54
2022/02/16 12:06:00;;;;;;;0.40;0.40;;;9.40;95.20;;;;;;5034183;28;20048;-54
2022/02/16 12:08:36;;;;;;;0.52;0.50;;;9.40;95.40;;;;;;5036327;28;20466;-53
2022/02/16 12:11:18;;;;;;;0.50;0.50;;;9.40;95.30;;;;;;5045649;28;20074;-53
2022/02/16 12:13:47;;;;;;;0.28;0.25;;;9.40;95.40;;;;;;5042619;28;20086;-54
2022/02/16 12:16:33;;;;;;;0.50;0.50;;;9.40;95.50;;;;;;5044513;28;20030;-53
2022/02/16 12:19:02;;;;;;;0.60;0.60;;;9.40;95.30;;;;;;5038011;28;20458;-53
2022/02/16 12:21:34;;;;;;;0.30;0.30;;;9.40;95.40;;;;;;5034699;28;20033;-53
2022/02/16 12:24:02;;;;;;;0.40;0.40;;;9.40;95.50;;;;;;5042213;28;20068;-53
2022/02/16 12:26:38;;;;;;;0.90;0.40;;;9.40;95.90;;;;;;5038999;28;20363;-53
2022/02/16 12:29:06;;;;;;;0.40;0.40;;;9.40;95.60;;;;;;5038851;28;20037;-54
2022/02/16 12:31:37;;;;;;;0.82;0.70;;;9.40;95.60;;;;;;5040391;28;20112;-54
2022/02/16 12:34:05;;;;;;;0.60;0.55;;;9.40;95.50;;;;;;5041897;28;20064;-54
2022/02/16 12:36:32;;;;;;;0.55;0.43;;;9.40;95.50;;;;;;5038540;28;20095;-53
2022/02/16 12:39:02;;;;;;;0.40;0.40;;;9.40;95.50;;;;;;5040559;28;20014;-54
2022/02/16 12:41:28;;;;;;;0.30;0.30;;;9.50;95.60;;;;;;5042527;28;20037;-53
2022/02/16 12:44:03;;;;;;;0.35;0.35;;;9.50;95.60;;;;;;5042563;28;20057;-53
2022/02/16 12:46:35;;;;;;;0.43;0.43;;;9.40;95.50;;;;;;5037288;28;20203;-53
2022/02/16 12:49:01;;;;;;;0.20;0.20;;;9.50;95.70;;;;;;5045000;28;20040;-53
2022/02/16 12:51:32;;;;;;;0.35;0.35;;;9.50;95.60;;;;;;5031477;28;20448;-54
2022/02/16 12:54:03;;;;;;;0.60;0.60;;;9.50;95.80;;;;;;5044706;28;20111;-54
2022/02/16 12:56:33;;;;;;;0.85;0.57;;;9.50;95.50;;;;;;5043848;28;20091;-53
2022/02/16 12:59:14;;;;;;;0.32;0.32;;;9.50;95.60;;;;;;5037989;28;20056;-53